APL Illinois — 9HA2040 — position and weather

sailwx.info

Track history (hours):
 
Tides and Currents Weather Stations Pressure Air Temp Water Temp Dewpoint Dewpoint Depression Visibility Wind Speed Wind Dir Waves Ship Positions

APL Illinois

Last reported at 2018-Feb-14 06:14 UTC. Time now 2018-Feb-22 13:09 UTC.
Position N 31°48' W 080°21'.
Warning: this ship's position is 8 days out of date.

Length 304 m; draft 12.1 m.

Type: Ship (hazmat cat C). MMSI: 249851000.

Date/timePositionNaut miles runAvg speedWind from/ knotsBaromVisibWave heightAir tempDewpointWater temp
2018-Feb-14 06:14N 31°48' W 080°21'312.2
2018-Feb-14 06:00N 31°50' W 080°24'611.6
2018-Feb-14 05:30N 31°53' W 080°30'6 9.3
2018-Feb-14 04:54N 31°56' W 080°35'4 9.1
2018-Feb-14 04:30N 31°57' W 080°39'4 8.5
2018-Feb-14 04:01N 31°58' W 080°44'815.1
2018-Feb-14 03:30N 32°02' W 080°52'712.4
2018-Feb-14 02:59N 32°05' W 080°59'4 8.7
2018-Feb-14 02:30N 32°05' W 081°04'3 5.3
2018-Feb-14 02:00N 32°06' W 081°06'2 4.2
2018-Feb-14 01:30N 32°07' W 081°08'0 0.0
2018-Feb-14 01:00N 32°07' W 081°08'0 0.0
2018-Feb-14 00:30N 32°07' W 081°08'0 0.0
2018-Feb-14 00:00N 32°07' W 081°08'0 0.0
2018-Feb-13 23:30N 32°07' W 081°08'0 0.0
2018-Feb-13 23:00N 32°07' W 081°08'0 0.0
2018-Feb-13 22:30N 32°07' W 081°08'0 0.0
2018-Feb-13 22:00N 32°07' W 081°08'0 0.0
2018-Feb-13 21:30N 32°07' W 081°08'0 0.0
2018-Feb-13 21:00N 32°07' W 081°08'0 0.0
2018-Feb-13 20:30N 32°07' W 081°08'0 0.0
2018-Feb-13 20:00N 32°07' W 081°08'0 0.0
2018-Feb-13 19:30N 32°07' W 081°08'0 0.0
2018-Feb-13 19:00N 32°07' W 081°08'0 0.0
2018-Feb-13 18:24N 32°07' W 081°08'0 0.0
2018-Feb-13 18:00N 32°07' W 081°08'0 0.0
2018-Feb-13 17:30N 32°07' W 081°08'0 0.0
2018-Feb-13 17:00N 32°07' W 081°08'0 0.0
2018-Feb-13 16:24N 32°07' W 081°08'0 0.0
2018-Feb-13 16:00N 32°07' W 081°08'0 0.0
2018-Feb-13 15:30N 32°07' W 081°08'0 0.0
2018-Feb-13 15:00N 32°07' W 081°08'0 0.0
2018-Feb-13 14:24N 32°07' W 081°08'0 0.0
2018-Feb-13 14:00N 32°07' W 081°08'0 0.0
2018-Feb-13 13:24N 32°07' W 081°08'0 0.0
2018-Feb-13 13:00N 32°07' W 081°08'0 0.0
2018-Feb-13 12:30N 32°07' W 081°08'0 0.0
2018-Feb-13 12:00N 32°07' W 081°08'0 0.0
2018-Feb-13 11:30N 32°07' W 081°08'0 0.0
2018-Feb-13 11:00N 32°07' W 081°08'0 0.0
2018-Feb-13 10:24N 32°07' W 081°08'0 0.0
2018-Feb-13 10:00N 32°07' W 081°08'0 0.0
2018-Feb-13 09:24N 32°07' W 081°08'0 0.0
2018-Feb-13 09:00N 32°07' W 081°08'0 0.0
2018-Feb-13 08:30N 32°07' W 081°08'0 0.0
2018-Feb-13 08:00N 32°07' W 081°08'0 0.0
2018-Feb-13 07:30N 32°07' W 081°08'0 0.0
2018-Feb-13 07:00N 32°07' W 081°08'0 0.0
2018-Feb-13 06:30N 32°07' W 081°08'0 0.0
2018-Feb-13 06:00N 32°07' W 081°08'0 0.0
2018-Feb-13 05:30N 32°07' W 081°08'0 0.0
2018-Feb-13 04:54N 32°07' W 081°08'0 0.0
2018-Feb-13 04:30N 32°07' W 081°08'0 0.0
2018-Feb-13 04:00N 32°07' W 081°08'0 0.0
2018-Feb-13 03:24N 32°07' W 081°08'0 0.0
2018-Feb-13 03:00N 32°07' W 081°08'0 0.0
2018-Feb-13 02:30N 32°07' W 081°08'0 0.0
2018-Feb-13 02:00N 32°07' W 081°08'0 0.0
2018-Feb-13 01:30N 32°07' W 081°08'0 0.0
2018-Feb-13 01:00N 32°07' W 081°08'0 0.0
2018-Feb-13 00:30N 32°07' W 081°08'0 0.0
2018-Feb-12 23:54N 32°07' W 081°08'0 0.0
2018-Feb-12 23:30N 32°07' W 081°08'0 0.0
2018-Feb-12 23:00N 32°07' W 081°08'0 0.0
2018-Feb-12 22:30N 32°07' W 081°08'0 0.0
2018-Feb-12 22:00N 32°07' W 081°08'0 0.0
2018-Feb-12 21:30N 32°07' W 081°08'0 0.0
2018-Feb-12 21:00N 32°07' W 081°08'0 0.0
2018-Feb-12 20:30N 32°07' W 081°08'0 0.0
2018-Feb-12 20:00N 32°07' W 081°08'0 0.0
2018-Feb-12 19:30N 32°07' W 081°08'0 0.0
2018-Feb-12 19:00N 32°07' W 081°08'0 0.0
2018-Feb-12 18:24N 32°07' W 081°08'0 0.1
2018-Feb-12 18:00N 32°07' W 081°08'0 0.1
2018-Feb-12 17:30N 32°07' W 081°08'2 4.6
2018-Feb-12 17:00N 32°06' W 081°06'2 4.9
2018-Feb-12 16:30N 32°05' W 081°03'4 7.3
2018-Feb-12 16:00N 32°05' W 080°59'510.2
2018-Feb-12 15:30N 32°02' W 080°54'611.5
2018-Feb-12 15:01N 32°00' W 080°48'714.0
2018-Feb-12 14:31N 31°57' W 080°41'4 8.4
2018-Feb-12 14:01N 31°56' W 080°36'3 5.6
2018-Feb-12 13:30N 31°55' W 080°33'0 0.4
2018-Feb-12 13:00N 31°55' W 080°33'0 0.0
2018-Feb-12 12:30N 31°55' W 080°33'0 0.3
2018-Feb-12 12:00N 31°55' W 080°33'1 1.2
2018-Feb-12 11:29N 31°56' W 080°32'1 1.3
2018-Feb-12 11:00N 31°56' W 080°32'0 0.1
2018-Feb-12 10:18N 31°56' W 080°32'0 0.1
2018-Feb-12 10:00N 31°56' W 080°32'0 0.0
2018-Feb-12 09:30N 31°56' W 080°32'0 0.0
2018-Feb-12 09:00N 31°56' W 080°32'0 0.2
2018-Feb-12 08:30N 31°56' W 080°32'0 0.1
2018-Feb-12 08:00N 31°56' W 080°32'0 0.0
2018-Feb-12 07:18N 31°56' W 080°32'0 0.2
2018-Feb-12 07:00N 31°56' W 080°32'0 0.0
2018-Feb-12 06:30N 31°56' W 080°32'0 0.0
2018-Feb-12 05:00N 31°56' W 080°32'0 0.3
2018-Feb-12 04:24N 31°56' W 080°32'0 0.2
2018-Feb-12 03:54N 31°56' W 080°32'0 0.1
2018-Feb-12 03:30N 31°56' W 080°32'0 0.0
2018-Feb-12 03:00N 31°56' W 080°32'0 0.0
2018-Feb-12 02:30N 31°56' W 080°32'0 0.0
2018-Feb-12 02:00N 31°56' W 080°32'0 0.0
2018-Feb-12 01:30N 31°56' W 080°32'0 0.0
2018-Feb-12 01:00N 31°56' W 080°32'0 0.2
2018-Feb-12 00:30N 31°56' W 080°32'0 0.0
2018-Feb-12 00:00N 31°56' W 080°32'0 0.0
2018-Feb-11 23:30N 31°56' W 080°32'0 0.1
2018-Feb-11 23:00N 31°56' W 080°32'0 0.0
2018-Feb-11 22:30N 31°56' W 080°32'0 0.0
2018-Feb-11 22:00N 31°56' W 080°32'0 0.0
2018-Feb-11 21:30N 31°56' W 080°32'0 0.0
2018-Feb-11 21:00N 31°56' W 080°32'0 0.1
2018-Feb-11 20:30N 31°56' W 080°32'0 0.0
2018-Feb-11 19:54N 31°56' W 080°32'0 0.0
2018-Feb-11 19:30N 31°56' W 080°32'0 0.0
2018-Feb-11 19:00N 31°56' W 080°32'0 0.0
2018-Feb-11 18:30N 31°56' W 080°32'0 0.0
2018-Feb-11 17:48N 31°56' W 080°32'0 0.0
2018-Feb-11 17:18N 31°56' W 080°32'0 0.1
2018-Feb-11 17:00N 31°56' W 080°32'0 0.1
2018-Feb-11 16:30N 31°56' W 080°32'0 0.0
2018-Feb-11 15:42N 31°56' W 080°32'0 0.1
2018-Feb-11 15:24N 31°56' W 080°32'0 0.1
2018-Feb-11 15:00N 31°56' W 080°32'0 0.0
2018-Feb-11 14:30N 31°56' W 080°32'0 0.0
2018-Feb-11 14:00N 31°56' W 080°32'0 0.0
2018-Feb-11 13:30N 31°56' W 080°32'0 0.0
2018-Feb-11 13:00N 31°56' W 080°32'0 0.0
2018-Feb-11 12:24N 31°56' W 080°32'0 0.1
2018-Feb-11 11:12N 31°56' W 080°32'0 0.0
2018-Feb-11 06:12N 31°56' W 080°32'0 0.3
2018-Feb-11 05:54N 31°56' W 080°32'0 0.1
2018-Feb-11 05:29N 31°56' W 080°32'1 2.0
2018-Feb-11 05:00N 31°55' W 080°32'4 9.0
2018-Feb-11 04:30N 31°54' W 080°27'810.7
2018-Feb-11 03:47N 31°55' W 080°18'311.3
2018-Feb-11 03:30N 31°57' W 080°14'611.3
2018-Feb-11 02:57N 31°59' W 080°08'240 8.3
2018-Feb-09 21:49N 34°21' W 076°15'15012.7
2018-Feb-09 10:00N 36°49' W 075°46'9 9.3
2018-Feb-09 09:00N 36°54' W 075°55'5 9.4
2018-Feb-09 08:30N 36°57' W 076°00'16 8.1
2018-Feb-09 06:30N 36°53' W 076°20'2 0.1
2018-Feb-08 10:00N 36°51' W 076°20'5 4.8
2018-Feb-08 09:00N 36°56' W 076°20'5 9.5
2018-Feb-08 08:30N 37°00' W 076°17'714.7
2018-Feb-08 08:00N 36°59' W 076°08'9915.2
2018-Feb-08 01:31N 38°37' W 076°26'918.6
2018-Feb-08 01:00N 38°46' W 076°26'1019.0
2018-Feb-08 00:30N 38°55' W 076°23'815.2
2018-Feb-08 00:00N 39°03' W 076°23'713.4
2018-Feb-07 23:30N 39°09' W 076°25'611.3
2018-Feb-07 23:00N 39°13' W 076°31'3 6.6
2018-Feb-07 22:30N 39°15' W 076°33'1 1.2
2018-Feb-07 22:01N 39°15' W 076°33'0 0.0
2018-Feb-07 21:31N 39°15' W 076°33'0 0.0
2018-Feb-07 09:28N 39°15' W 076°33'0 0.0
2018-Feb-07 09:00N 39°15' W 076°33'0 0.0
2018-Feb-07 07:30N 39°15' W 076°33'0 0.1
2018-Feb-07 06:57N 39°15' W 076°33'0 0.0
2018-Feb-07 06:00N 39°15' W 076°33'0 0.0
2018-Feb-07 04:28N 39°15' W 076°33'0 0.0
2018-Feb-07 02:58N 39°15' W 076°33'0 0.0
2018-Feb-07 01:30N 39°15' W 076°33'0 0.0
2018-Feb-06 23:00N 39°15' W 076°33'0 0.0
2018-Feb-06 20:58N 39°15' W 076°33'0 0.0
2018-Feb-06 20:00N 39°15' W 076°33'0 0.0
2018-Feb-06 19:30N 39°15' W 076°33'0 0.0
2018-Feb-06 15:28N 39°15' W 076°33'0 0.0
2018-Feb-06 14:57N 39°15' W 076°33'0 0.0
2018-Feb-06 14:27N 39°15' W 076°33'0 0.0
2018-Feb-06 13:00N 39°15' W 076°33'0 0.0
2018-Feb-06 10:00N 39°15' W 076°33'9 6.0
2018-Feb-06 08:30N 39°09' W 076°25'3215.9
2018-Feb-06 06:30N 38°37' W 076°25'1018.3
2018-Feb-06 05:58N 38°27' W 076°22'919.0
2018-Feb-06 05:30N 38°19' W 076°18'1618.9
2018-Feb-06 04:39N 38°04' W 076°13'418.8
2018-Feb-06 04:27N 37°60' W 076°12'3915.9
2018-Feb-06 02:01N 37°22' W 076°05'415.8
2018-Feb-06 01:44N 37°18' W 076°07'416.0
2018-Feb-06 01:29N 37°14' W 076°08'714.8
2018-Feb-06 00:59N 37°07' W 076°07'1313.0
2018-Feb-06 00:00N 36°56' W 075°58'4 8.8
2018-Feb-05 23:30N 36°54' W 075°53'4 8.1
2018-Feb-05 23:00N 36°51' W 075°49'4 8.2
2018-Feb-05 22:30N 36°49' W 075°45'4 8.4
2018-Feb-05 21:59N 36°49' W 075°39'41811.6
2018-Feb-04 09:56N 42°17' W 070°04'1515.8
2018-Feb-04 09:00N 42°18' W 070°24'815.4
2018-Feb-04 08:30N 42°19' W 070°34'815.5
2018-Feb-04 08:00N 42°21' W 070°44'611.9
2018-Feb-04 07:30N 42°23' W 070°52'5 9.7
2018-Feb-04 07:00N 42°20' W 070°57'3 5.9
2018-Feb-04 06:30N 42°21' W 071°01'  
Track history (hours):
 
Tides and Currents Weather Stations Pressure Air Temp Water Temp Dewpoint Dewpoint Depression Visibility Wind Speed Wind Dir Waves Ship Positions

APL Illinois

Last reported at 2018-Feb-14 06:14 UTC. Time now 2018-Feb-22 13:09 UTC.
Position N 31°48' W 080°21'.
Warning: this ship's position is 8 days out of date.

Length 304 m; draft 12.1 m.

Type: Ship (hazmat cat C). MMSI: 249851000.

Date/timePositionNaut miles runAvg speedWind from/ knotsBaromVisibWave heightAir tempDewpointWater temp
2018-Feb-14 06:14N 31°48' W 080°21'312.2
2018-Feb-14 06:00N 31°50' W 080°24'611.6
2018-Feb-14 05:30N 31°53' W 080°30'6 9.3
2018-Feb-14 04:54N 31°56' W 080°35'4 9.1
2018-Feb-14 04:30N 31°57' W 080°39'4 8.5
2018-Feb-14 04:01N 31°58' W 080°44'815.1
2018-Feb-14 03:30N 32°02' W 080°52'712.4
2018-Feb-14 02:59N 32°05' W 080°59'4 8.7
2018-Feb-14 02:30N 32°05' W 081°04'3 5.3
2018-Feb-14 02:00N 32°06' W 081°06'2 4.2
2018-Feb-14 01:30N 32°07' W 081°08'0 0.0
2018-Feb-14 01:00N 32°07' W 081°08'0 0.0
2018-Feb-14 00:30N 32°07' W 081°08'0 0.0
2018-Feb-14 00:00N 32°07' W 081°08'0 0.0
2018-Feb-13 23:30N 32°07' W 081°08'0 0.0
2018-Feb-13 23:00N 32°07' W 081°08'0 0.0
2018-Feb-13 22:30N 32°07' W 081°08'0 0.0
2018-Feb-13 22:00N 32°07' W 081°08'0 0.0
2018-Feb-13 21:30N 32°07' W 081°08'0 0.0
2018-Feb-13 21:00N 32°07' W 081°08'0 0.0
2018-Feb-13 20:30N 32°07' W 081°08'0 0.0
2018-Feb-13 20:00N 32°07' W 081°08'0 0.0
2018-Feb-13 19:30N 32°07' W 081°08'0 0.0
2018-Feb-13 19:00N 32°07' W 081°08'0 0.0
2018-Feb-13 18:24N 32°07' W 081°08'0 0.0
2018-Feb-13 18:00N 32°07' W 081°08'0 0.0
2018-Feb-13 17:30N 32°07' W 081°08'0 0.0
2018-Feb-13 17:00N 32°07' W 081°08'0 0.0
2018-Feb-13 16:24N 32°07' W 081°08'0 0.0
2018-Feb-13 16:00N 32°07' W 081°08'0 0.0
2018-Feb-13 15:30N 32°07' W 081°08'0 0.0
2018-Feb-13 15:00N 32°07' W 081°08'0 0.0
2018-Feb-13 14:24N 32°07' W 081°08'0 0.0
2018-Feb-13 14:00N 32°07' W 081°08'0 0.0
2018-Feb-13 13:24N 32°07' W 081°08'0 0.0
2018-Feb-13 13:00N 32°07' W 081°08'0 0.0
2018-Feb-13 12:30N 32°07' W 081°08'0 0.0
2018-Feb-13 12:00N 32°07' W 081°08'0 0.0
2018-Feb-13 11:30N 32°07' W 081°08'0 0.0
2018-Feb-13 11:00N 32°07' W 081°08'0 0.0
2018-Feb-13 10:24N 32°07' W 081°08'0 0.0
2018-Feb-13 10:00N 32°07' W 081°08'0 0.0
2018-Feb-13 09:24N 32°07' W 081°08'0 0.0
2018-Feb-13 09:00N 32°07' W 081°08'0 0.0
2018-Feb-13 08:30N 32°07' W 081°08'0 0.0
2018-Feb-13 08:00N 32°07' W 081°08'0 0.0
2018-Feb-13 07:30N 32°07' W 081°08'0 0.0
2018-Feb-13 07:00N 32°07' W 081°08'0 0.0
2018-Feb-13 06:30N 32°07' W 081°08'0 0.0
2018-Feb-13 06:00N 32°07' W 081°08'0 0.0
2018-Feb-13 05:30N 32°07' W 081°08'0 0.0
2018-Feb-13 04:54N 32°07' W 081°08'0 0.0
2018-Feb-13 04:30N 32°07' W 081°08'0 0.0
2018-Feb-13 04:00N 32°07' W 081°08'0 0.0
2018-Feb-13 03:24N 32°07' W 081°08'0 0.0
2018-Feb-13 03:00N 32°07' W 081°08'0 0.0
2018-Feb-13 02:30N 32°07' W 081°08'0 0.0
2018-Feb-13 02:00N 32°07' W 081°08'0 0.0
2018-Feb-13 01:30N 32°07' W 081°08'0 0.0
2018-Feb-13 01:00N 32°07' W 081°08'0 0.0
2018-Feb-13 00:30N 32°07' W 081°08'0 0.0
2018-Feb-12 23:54N 32°07' W 081°08'0 0.0
2018-Feb-12 23:30N 32°07' W 081°08'0 0.0
2018-Feb-12 23:00N 32°07' W 081°08'0 0.0
2018-Feb-12 22:30N 32°07' W 081°08'0 0.0
2018-Feb-12 22:00N 32°07' W 081°08'0 0.0
2018-Feb-12 21:30N 32°07' W 081°08'0 0.0
2018-Feb-12 21:00N 32°07' W 081°08'0 0.0
2018-Feb-12 20:30N 32°07' W 081°08'0 0.0
2018-Feb-12 20:00N 32°07' W 081°08'0 0.0
2018-Feb-12 19:30N 32°07' W 081°08'0 0.0
2018-Feb-12 19:00N 32°07' W 081°08'0 0.0
2018-Feb-12 18:24N 32°07' W 081°08'0 0.1
2018-Feb-12 18:00N 32°07' W 081°08'0 0.1
2018-Feb-12 17:30N 32°07' W 081°08'2 4.6
2018-Feb-12 17:00N 32°06' W 081°06'2 4.9
2018-Feb-12 16:30N 32°05' W 081°03'4 7.3
2018-Feb-12 16:00N 32°05' W 080°59'510.2
2018-Feb-12 15:30N 32°02' W 080°54'611.5
2018-Feb-12 15:01N 32°00' W 080°48'714.0
2018-Feb-12 14:31N 31°57' W 080°41'4 8.4
2018-Feb-12 14:01N 31°56' W 080°36'3 5.6
2018-Feb-12 13:30N 31°55' W 080°33'0 0.4
2018-Feb-12 13:00N 31°55' W 080°33'0 0.0
2018-Feb-12 12:30N 31°55' W 080°33'0 0.3
2018-Feb-12 12:00N 31°55' W 080°33'1 1.2
2018-Feb-12 11:29N 31°56' W 080°32'1 1.3
2018-Feb-12 11:00N 31°56' W 080°32'0 0.1
2018-Feb-12 10:18N 31°56' W 080°32'0 0.1
2018-Feb-12 10:00N 31°56' W 080°32'0 0.0
2018-Feb-12 09:30N 31°56' W 080°32'0 0.0
2018-Feb-12 09:00N 31°56' W 080°32'0 0.2
2018-Feb-12 08:30N 31°56' W 080°32'0 0.1
2018-Feb-12 08:00N 31°56' W 080°32'0 0.0
2018-Feb-12 07:18N 31°56' W 080°32'0 0.2
2018-Feb-12 07:00N 31°56' W 080°32'0 0.0
2018-Feb-12 06:30N 31°56' W 080°32'0 0.0
2018-Feb-12 05:00N 31°56' W 080°32'0 0.3
2018-Feb-12 04:24N 31°56' W 080°32'0 0.2
2018-Feb-12 03:54N 31°56' W 080°32'0 0.1
2018-Feb-12 03:30N 31°56' W 080°32'0 0.0
2018-Feb-12 03:00N 31°56' W 080°32'0 0.0
2018-Feb-12 02:30N 31°56' W 080°32'0 0.0
2018-Feb-12 02:00N 31°56' W 080°32'0 0.0
2018-Feb-12 01:30N 31°56' W 080°32'0 0.0
2018-Feb-12 01:00N 31°56' W 080°32'0 0.2
2018-Feb-12 00:30N 31°56' W 080°32'0 0.0
2018-Feb-12 00:00N 31°56' W 080°32'0 0.0
2018-Feb-11 23:30N 31°56' W 080°32'0 0.1
2018-Feb-11 23:00N 31°56' W 080°32'0 0.0
2018-Feb-11 22:30N 31°56' W 080°32'0 0.0
2018-Feb-11 22:00N 31°56' W 080°32'0 0.0
2018-Feb-11 21:30N 31°56' W 080°32'0 0.0
2018-Feb-11 21:00N 31°56' W 080°32'0 0.1
2018-Feb-11 20:30N 31°56' W 080°32'0 0.0
2018-Feb-11 19:54N 31°56' W 080°32'0 0.0
2018-Feb-11 19:30N 31°56' W 080°32'0 0.0
2018-Feb-11 19:00N 31°56' W 080°32'0 0.0
2018-Feb-11 18:30N 31°56' W 080°32'0 0.0
2018-Feb-11 17:48N 31°56' W 080°32'0 0.0
2018-Feb-11 17:18N 31°56' W 080°32'0 0.1
2018-Feb-11 17:00N 31°56' W 080°32'0 0.1
2018-Feb-11 16:30N 31°56' W 080°32'0 0.0
2018-Feb-11 15:42N 31°56' W 080°32'0 0.1
2018-Feb-11 15:24N 31°56' W 080°32'0 0.1
2018-Feb-11 15:00N 31°56' W 080°32'0 0.0
2018-Feb-11 14:30N 31°56' W 080°32'0 0.0
2018-Feb-11 14:00N 31°56' W 080°32'0 0.0
2018-Feb-11 13:30N 31°56' W 080°32'0 0.0
2018-Feb-11 13:00N 31°56' W 080°32'0 0.0
2018-Feb-11 12:24N 31°56' W 080°32'0 0.1
2018-Feb-11 11:12N 31°56' W 080°32'0 0.0
2018-Feb-11 06:12N 31°56' W 080°32'0 0.3
2018-Feb-11 05:54N 31°56' W 080°32'0 0.1
2018-Feb-11 05:29N 31°56' W 080°32'1 2.0
2018-Feb-11 05:00N 31°55' W 080°32'4 9.0
2018-Feb-11 04:30N 31°54' W 080°27'810.7
2018-Feb-11 03:47N 31°55' W 080°18'311.3
2018-Feb-11 03:30N 31°57' W 080°14'611.3
2018-Feb-11 02:57N 31°59' W 080°08'240 8.3
2018-Feb-09 21:49N 34°21' W 076°15'15012.7
2018-Feb-09 10:00N 36°49' W 075°46'9 9.3
2018-Feb-09 09:00N 36°54' W 075°55'5 9.4
2018-Feb-09 08:30N 36°57' W 076°00'16 8.1
2018-Feb-09 06:30N 36°53' W 076°20'2 0.1
2018-Feb-08 10:00N 36°51' W 076°20'5 4.8
2018-Feb-08 09:00N 36°56' W 076°20'5 9.5
2018-Feb-08 08:30N 37°00' W 076°17'714.7
2018-Feb-08 08:00N 36°59' W 076°08'9915.2
2018-Feb-08 01:31N 38°37' W 076°26'918.6
2018-Feb-08 01:00N 38°46' W 076°26'1019.0
2018-Feb-08 00:30N 38°55' W 076°23'815.2
2018-Feb-08 00:00N 39°03' W 076°23'713.4
2018-Feb-07 23:30N 39°09' W 076°25'611.3
2018-Feb-07 23:00N 39°13' W 076°31'3 6.6
2018-Feb-07 22:30N 39°15' W 076°33'1 1.2
2018-Feb-07 22:01N 39°15' W 076°33'0 0.0
2018-Feb-07 21:31N 39°15' W 076°33'0 0.0
2018-Feb-07 09:28N 39°15' W 076°33'0 0.0
2018-Feb-07 09:00N 39°15' W 076°33'0 0.0
2018-Feb-07 07:30N 39°15' W 076°33'0 0.1
2018-Feb-07 06:57N 39°15' W 076°33'0 0.0
2018-Feb-07 06:00N 39°15' W 076°33'0 0.0
2018-Feb-07 04:28N 39°15' W 076°33'0 0.0
2018-Feb-07 02:58N 39°15' W 076°33'0 0.0
2018-Feb-07 01:30N 39°15' W 076°33'0 0.0
2018-Feb-06 23:00N 39°15' W 076°33'0 0.0
2018-Feb-06 20:58N 39°15' W 076°33'0 0.0
2018-Feb-06 20:00N 39°15' W 076°33'0 0.0
2018-Feb-06 19:30N 39°15' W 076°33'0 0.0
2018-Feb-06 15:28N 39°15' W 076°33'0 0.0
2018-Feb-06 14:57N 39°15' W 076°33'0 0.0
2018-Feb-06 14:27N 39°15' W 076°33'0 0.0
2018-Feb-06 13:00N 39°15' W 076°33'0 0.0
2018-Feb-06 10:00N 39°15' W 076°33'9 6.0
2018-Feb-06 08:30N 39°09' W 076°25'3215.9
2018-Feb-06 06:30N 38°37' W 076°25'1018.3
2018-Feb-06 05:58N 38°27' W 076°22'919.0
2018-Feb-06 05:30N 38°19' W 076°18'1618.9
2018-Feb-06 04:39N 38°04' W 076°13'418.8
2018-Feb-06 04:27N 37°60' W 076°12'3915.9
2018-Feb-06 02:01N 37°22' W 076°05'415.8
2018-Feb-06 01:44N 37°18' W 076°07'416.0
2018-Feb-06 01:29N 37°14' W 076°08'714.8
2018-Feb-06 00:59N 37°07' W 076°07'1313.0
2018-Feb-06 00:00N 36°56' W 075°58'4 8.8
2018-Feb-05 23:30N 36°54' W 075°53'4 8.1
2018-Feb-05 23:00N 36°51' W 075°49'4 8.2
2018-Feb-05 22:30N 36°49' W 075°45'4 8.4
2018-Feb-05 21:59N 36°49' W 075°39'41811.6
2018-Feb-04 09:56N 42°17' W 070°04'1515.8
2018-Feb-04 09:00N 42°18' W 070°24'815.4
2018-Feb-04 08:30N 42°19' W 070°34'815.5
2018-Feb-04 08:00N 42°21' W 070°44'611.9
2018-Feb-04 07:30N 42°23' W 070°52'5 9.7
2018-Feb-04 07:00N 42°20' W 070°57'3 5.9
2018-Feb-04 06:30N 42°21' W 071°01'  

Dump ship's entire track history